createdAt,value
2023-03-30T00:01:12.441Z,16.44
2023-03-30T00:03:39.791Z,16.44
2023-03-30T00:06:08.888Z,16.34
2023-03-30T00:08:36.080Z,16.38
2023-03-30T00:11:08.294Z,16.38
2023-03-30T00:13:36.748Z,16.39
2023-03-30T00:16:05.151Z,16.40
2023-03-30T00:18:32.202Z,16.33
2023-03-30T00:20:59.015Z,16.33
2023-03-30T00:23:26.226Z,16.34
2023-03-30T00:25:52.997Z,16.36
2023-03-30T00:28:19.821Z,16.32
2023-03-30T00:30:50.219Z,16.34
2023-03-30T00:33:17.041Z,16.33
2023-03-30T00:35:43.907Z,16.34
2023-03-30T00:38:10.744Z,16.26
2023-03-30T00:40:40.913Z,16.29
2023-03-30T00:43:14.247Z,16.24
2023-03-30T00:45:41.106Z,16.18
2023-03-30T00:48:11.855Z,16.21
2023-03-30T00:50:42.016Z,16.21
2023-03-30T00:53:17.344Z,16.21
2023-03-30T00:55:46.646Z,16.17
2023-03-30T00:58:16.780Z,16.17
2023-03-30T01:00:47.238Z,16.17
2023-03-30T01:03:37.501Z,16.19
2023-03-30T01:06:07.594Z,16.19
2023-03-30T01:08:35.104Z,16.18
2023-03-30T01:11:02.970Z,16.19
2023-03-30T01:13:35.773Z,16.20
2023-03-30T01:16:19.019Z,16.21
2023-03-30T01:19:01.312Z,16.20
2023-03-30T01:21:39.910Z,16.20
2023-03-30T01:24:42.885Z,16.17
2023-03-30T01:27:09.860Z,16.13
2023-03-30T01:30:09.683Z,16.05
2023-03-30T01:33:01.064Z,16.05
2023-03-30T01:35:46.482Z,15.91
2023-03-30T01:38:41.267Z,15.84
2023-03-30T01:41:20.055Z,15.87
2023-03-30T01:44:35.995Z,15.85
2023-03-30T01:47:02.740Z,15.83
2023-03-30T01:49:38.278Z,15.83
2023-03-30T01:52:14.386Z,15.82
2023-03-30T01:54:49.536Z,15.82
2023-03-30T01:57:20.696Z,15.77
2023-03-30T01:59:58.499Z,15.68
2023-03-30T02:02:31.003Z,15.49
2023-03-30T02:05:05.251Z,15.57
2023-03-30T02:07:35.894Z,15.61
2023-03-30T02:10:06.381Z,15.58
2023-03-30T02:12:36.130Z,15.58
2023-03-30T02:15:10.699Z,15.58
2023-03-30T02:17:38.391Z,15.58
2023-03-30T02:20:09.527Z,15.57
2023-03-30T02:22:36.949Z,15.58
2023-03-30T02:25:03.851Z,15.53
2023-03-30T02:27:32.132Z,15.50
2023-03-30T02:29:59.259Z,15.47
2023-03-30T02:32:32.076Z,15.43
2023-03-30T02:35:15.492Z,15.42
2023-03-30T02:37:46.390Z,15.40
2023-03-30T02:41:02.817Z,15.35
2023-03-30T02:43:48.328Z,15.32
2023-03-30T02:46:33.975Z,15.29
2023-03-30T02:49:16.722Z,15.28
2023-03-30T02:51:54.110Z,15.19
2023-03-30T02:54:37.746Z,15.15
2023-03-30T02:57:41.300Z,15.19
2023-03-30T03:01:03.601Z,15.22
2023-03-30T03:03:47.699Z,15.13
2023-03-30T03:06:17.385Z,15.03
2023-03-30T03:08:49.631Z,15.00
2023-03-30T03:11:23.165Z,15.00
2023-03-30T03:13:50.343Z,15.06
2023-03-30T03:16:17.403Z,15.01
2023-03-30T03:19:08.239Z,15.02
2023-03-30T03:21:35.205Z,15.02
2023-03-30T03:24:02.486Z,15.01
2023-03-30T03:26:49.490Z,14.94
2023-03-30T03:29:16.880Z,14.98
2023-03-30T03:31:43.656Z,14.94
2023-03-30T03:34:10.850Z,14.90
2023-03-30T03:36:57.260Z,14.90
2023-03-30T03:39:28.051Z,14.92
2023-03-30T03:42:04.476Z,14.91
2023-03-30T03:44:31.609Z,14.88
2023-03-30T03:46:58.395Z,14.89
2023-03-30T03:49:25.254Z,14.89
2023-03-30T03:51:53.659Z,14.86
2023-03-30T03:54:20.750Z,14.92
2023-03-30T03:56:49.092Z,14.68
2023-03-30T03:59:15.942Z,14.82
2023-03-30T04:01:42.805Z,14.81
2023-03-30T04:04:09.711Z,14.80
2023-03-30T04:06:37.045Z,14.75
2023-03-30T04:09:03.930Z,14.73
2023-03-30T04:11:49.586Z,14.68
2023-03-30T04:14:35.084Z,14.71
2023-03-30T04:17:23.959Z,14.69
2023-03-30T04:20:12.260Z,14.67
2023-03-30T04:23:02.822Z,14.71
2023-03-30T04:25:57.915Z,14.69
2023-03-30T04:28:59.739Z,14.68
2023-03-30T04:31:50.929Z,14.69
2023-03-30T04:34:42.647Z,14.71
2023-03-30T04:37:30.670Z,14.69
2023-03-30T04:40:08.125Z,14.63
2023-03-30T04:42:54.671Z,14.57
2023-03-30T04:45:38.089Z,14.43
2023-03-30T04:48:07.797Z,14.49
2023-03-30T04:51:10.324Z,14.48
2023-03-30T04:54:00.089Z,14.50
2023-03-30T04:56:45.632Z,14.48
2023-03-30T04:59:18.630Z,14.48
2023-03-30T05:02:05.858Z,14.47
2023-03-30T05:04:51.468Z,14.38
2023-03-30T05:07:36.757Z,14.39
2023-03-30T05:10:18.658Z,14.45
2023-03-30T05:13:01.876Z,14.50
2023-03-30T05:16:01.630Z,14.50
2023-03-30T05:18:49.337Z,14.51
2023-03-30T05:21:39.436Z,14.35
2023-03-30T05:24:26.758Z,14.35
2023-03-30T05:26:53.548Z,14.30
2023-03-30T05:29:43.224Z,14.38
2023-03-30T05:32:28.229Z,14.41
2023-03-30T05:35:31.030Z,14.45
2023-03-30T05:38:04.200Z,14.51
2023-03-30T05:40:47.776Z,14.46
2023-03-30T05:43:34.547Z,14.50
2023-03-30T05:46:30.999Z,14.54
2023-03-30T05:49:16.471Z,14.56
2023-03-30T05:52:05.612Z,14.59
2023-03-30T05:54:50.949Z,14.62
2023-03-30T05:57:53.092Z,14.63
2023-03-30T06:00:36.820Z,14.67
2023-03-30T06:03:14.878Z,14.68
2023-03-30T06:05:43.759Z,14.75
2023-03-30T06:08:12.066Z,14.78
2023-03-30T06:10:39.144Z,14.81
2023-03-30T06:13:09.227Z,14.81
2023-03-30T06:15:46.594Z,14.71
2023-03-30T06:18:19.023Z,14.78
2023-03-30T06:20:53.641Z,14.83
2023-03-30T06:23:21.257Z,14.90
2023-03-30T06:25:53.236Z,14.98
2023-03-30T06:28:25.606Z,15.06
2023-03-30T06:30:53.724Z,15.12
2023-03-30T06:33:26.011Z,15.26
2023-03-30T06:35:58.145Z,15.42
2023-03-30T06:38:25.164Z,15.60
2023-03-30T06:40:53.540Z,15.74
2023-03-30T06:43:25.392Z,15.85
2023-03-30T06:46:08.694Z,15.96
2023-03-30T06:48:35.730Z,16.01
2023-03-30T06:51:21.258Z,15.96
2023-03-30T06:53:48.661Z,15.90
2023-03-30T06:56:15.673Z,15.80
2023-03-30T06:59:00.521Z,15.82
2023-03-30T07:01:27.824Z,15.78
2023-03-30T07:04:20.693Z,15.83
2023-03-30T07:07:20.940Z,15.81
2023-03-30T07:09:48.768Z,15.84
2023-03-30T07:12:15.672Z,15.76
2023-03-30T07:14:43.270Z,15.61
2023-03-30T07:17:10.340Z,15.74
2023-03-30T07:19:37.294Z,15.75
2023-03-30T07:22:04.171Z,15.73
2023-03-30T07:24:31.512Z,15.82
2023-03-30T07:26:59.071Z,15.79
2023-03-30T07:29:28.332Z,15.86
2023-03-30T07:31:56.810Z,15.93
2023-03-30T07:34:24.048Z,15.98
2023-03-30T07:36:54.859Z,16.03
2023-03-30T07:39:25.754Z,16.05
2023-03-30T07:41:52.581Z,16.13
2023-03-30T07:44:19.719Z,16.16
2023-03-30T07:46:46.736Z,16.25
2023-03-30T07:49:20.075Z,16.26
2023-03-30T07:51:47.326Z,16.30
2023-03-30T07:54:21.038Z,16.41
2023-03-30T07:57:03.177Z,16.53
2023-03-30T07:59:30.232Z,16.54
2023-03-30T08:02:07.067Z,16.86
2023-03-30T08:04:54.460Z,16.97
2023-03-30T08:07:30.197Z,17.00
2023-03-30T08:10:08.297Z,17.17
2023-03-30T08:12:35.173Z,17.24
2023-03-30T08:15:02.425Z,17.42
2023-03-30T08:17:29.209Z,17.58
2023-03-30T08:19:56.444Z,17.76
2023-03-30T08:22:23.464Z,17.91
2023-03-30T08:24:50.796Z,18.02
2023-03-30T08:27:17.599Z,17.97
2023-03-30T08:29:44.414Z,18.14
2023-03-30T08:32:13.652Z,18.29
2023-03-30T08:34:40.728Z,18.32
2023-03-30T08:37:07.769Z,18.44
2023-03-30T08:39:34.812Z,18.56
2023-03-30T08:42:04.539Z,18.67
2023-03-30T08:44:53.429Z,18.76
2023-03-30T08:47:33.212Z,18.88
2023-03-30T08:50:05.536Z,18.92
2023-03-30T08:52:33.946Z,18.92
2023-03-30T08:55:01.903Z,19.04
2023-03-30T08:57:41.174Z,19.14
2023-03-30T09:00:22.359Z,19.26
2023-03-30T09:02:53.922Z,19.33
2023-03-30T09:05:28.421Z,19.40
2023-03-30T09:08:23.285Z,19.42
2023-03-30T09:10:58.140Z,19.51
2023-03-30T09:13:28.341Z,19.57
2023-03-30T09:16:03.237Z,19.55
2023-03-30T09:18:34.912Z,19.39
2023-03-30T09:21:06.203Z,19.37
2023-03-30T09:23:34.050Z,19.43
2023-03-30T09:26:13.295Z,19.40
2023-03-30T09:29:25.869Z,19.45
2023-03-30T09:32:02.055Z,19.24
2023-03-30T09:34:53.239Z,19.21
2023-03-30T09:37:21.772Z,19.22
2023-03-30T09:39:49.849Z,19.28
2023-03-30T09:42:47.685Z,19.42
2023-03-30T09:45:22.306Z,19.46
2023-03-30T09:47:49.271Z,19.68
2023-03-30T09:50:23.641Z,19.77
2023-03-30T09:52:59.209Z,19.84
2023-03-30T09:55:31.274Z,19.92
2023-03-30T09:58:17.570Z,20.00
2023-03-30T10:00:45.928Z,20.05
2023-03-30T10:03:22.081Z,20.03
2023-03-30T10:06:07.592Z,20.15
2023-03-30T10:08:43.242Z,20.17
2023-03-30T10:11:10.501Z,20.17
2023-03-30T10:13:42.305Z,20.02
2023-03-30T10:16:34.365Z,20.22
2023-03-30T10:19:03.529Z,20.21
2023-03-30T10:21:39.022Z,20.29
2023-03-30T10:24:18.578Z,20.36
2023-03-30T10:26:46.857Z,20.40
2023-03-30T10:29:17.135Z,20.56
2023-03-30T10:31:46.900Z,20.73
2023-03-30T10:34:41.466Z,20.75
2023-03-30T10:37:13.269Z,20.79
2023-03-30T10:39:43.565Z,20.80
2023-03-30T10:42:17.114Z,20.90
2023-03-30T10:44:43.785Z,20.86
2023-03-30T10:47:25.595Z,20.96
2023-03-30T10:50:14.007Z,20.86
2023-03-30T10:53:04.903Z,20.84
2023-03-30T10:55:50.287Z,20.85
2023-03-30T10:58:38.405Z,20.74
2023-03-30T11:01:18.515Z,20.79
2023-03-30T11:03:52.054Z,20.66
2023-03-30T11:06:28.481Z,20.75
2023-03-30T11:08:58.877Z,20.70
2023-03-30T11:11:51.481Z,20.71
2023-03-30T11:14:43.151Z,20.78
2023-03-30T11:17:31.714Z,20.88
2023-03-30T11:20:18.477Z,20.74
2023-03-30T11:22:51.588Z,20.74
2023-03-30T11:25:25.265Z,20.64
2023-03-30T11:28:03.757Z,20.81
2023-03-30T11:30:33.715Z,20.78
2023-03-30T11:33:32.133Z,20.51
2023-03-30T11:36:11.285Z,20.54
2023-03-30T11:39:03.907Z,20.28
2023-03-30T11:41:48.667Z,20.34
2023-03-30T11:44:15.473Z,20.37
2023-03-30T11:46:55.172Z,20.38
2023-03-30T11:49:44.869Z,20.52
2023-03-30T11:52:32.891Z,20.73
2023-03-30T11:55:23.474Z,20.45
2023-03-30T11:58:06.836Z,20.49
2023-03-30T12:00:34.736Z,20.41
2023-03-30T12:03:09.390Z,20.54
2023-03-30T12:05:48.337Z,20.64
2023-03-30T12:08:36.503Z,20.52
2023-03-30T12:11:30.919Z,20.70
2023-03-30T12:13:58.815Z,20.76
2023-03-30T12:16:42.709Z,20.47
2023-03-30T12:19:53.478Z,20.69
2023-03-30T12:22:35.384Z,20.75
2023-03-30T12:25:28.383Z,20.39
2023-03-30T12:28:12.289Z,20.67
2023-03-30T12:30:57.849Z,20.68
2023-03-30T12:33:48.896Z,20.62
2023-03-30T12:36:35.091Z,20.78
2023-03-30T12:39:05.608Z,20.70
2023-03-30T12:41:48.537Z,20.41
2023-03-30T12:44:41.135Z,20.32
2023-03-30T12:47:23.267Z,20.17
2023-03-30T12:49:59.662Z,20.07
2023-03-30T12:53:03.842Z,20.07
2023-03-30T12:55:40.486Z,19.92
2023-03-30T12:58:24.420Z,20.08
2023-03-30T13:01:14.121Z,20.16
2023-03-30T13:03:40.878Z,20.10
2023-03-30T13:06:21.758Z,20.04
2023-03-30T13:08:54.781Z,19.87
2023-03-30T13:11:22.931Z,19.60
2023-03-30T13:13:51.683Z,19.82
2023-03-30T13:16:55.111Z,19.80
2023-03-30T13:19:41.084Z,19.98
2023-03-30T13:22:11.284Z,20.07
2023-03-30T13:24:57.869Z,20.09
2023-03-30T13:27:36.530Z,20.21
2023-03-30T13:30:12.471Z,20.30
2023-03-30T13:32:51.303Z,20.25
2023-03-30T13:35:23.914Z,20.20
2023-03-30T13:37:56.620Z,19.94
2023-03-30T13:43:39.830Z,20.12
2023-03-30T13:46:17.915Z,20.06
2023-03-30T13:48:47.609Z,19.85
2023-03-30T13:51:20.931Z,20.19
2023-03-30T13:53:54.178Z,20.18
2023-03-30T13:56:21.756Z,20.04
2023-03-30T13:59:16.206Z,20.18
2023-03-30T14:01:48.950Z,20.04
2023-03-30T14:04:16.434Z,20.07
2023-03-30T14:06:46.986Z,19.97
2023-03-30T14:09:19.576Z,20.13
2023-03-30T14:11:52.988Z,20.12
2023-03-30T14:14:29.070Z,20.07
2023-03-30T14:17:00.405Z,20.27
2023-03-30T14:19:42.248Z,20.22
2023-03-30T14:22:21.883Z,20.40
2023-03-30T14:24:58.922Z,20.33
2023-03-30T14:27:28.082Z,20.49
2023-03-30T14:29:55.220Z,20.55
2023-03-30T14:32:23.408Z,20.55
2023-03-30T14:34:52.253Z,20.58
2023-03-30T14:37:21.397Z,20.57
2023-03-30T14:39:56.692Z,20.56
2023-03-30T14:42:31.526Z,20.40
2023-03-30T14:44:58.493Z,20.31
2023-03-30T14:47:26.673Z,20.22
2023-03-30T14:49:59.980Z,20.24
2023-03-30T14:52:40.715Z,20.32
2023-03-30T14:55:26.543Z,20.28
2023-03-30T14:57:55.836Z,20.25
2023-03-30T15:00:25.025Z,20.03
2023-03-30T15:03:02.013Z,19.90
2023-03-30T15:05:36.128Z,19.62
2023-03-30T15:08:03.936Z,19.60
2023-03-30T15:10:50.322Z,19.55
2023-03-30T15:13:31.652Z,19.45
2023-03-30T15:16:00.526Z,19.56
2023-03-30T15:18:30.443Z,19.38
2023-03-30T15:20:59.195Z,19.26
2023-03-30T15:23:35.335Z,19.03
2023-03-30T15:26:04.338Z,19.26
2023-03-30T15:28:35.514Z,19.02
2023-03-30T15:31:02.610Z,19.23
2023-03-30T15:33:33.194Z,19.20
2023-03-30T15:36:07.548Z,19.17
2023-03-30T15:38:42.914Z,19.04
2023-03-30T15:41:14.644Z,18.94
2023-03-30T15:43:56.701Z,18.84
2023-03-30T15:46:23.633Z,18.63
2023-03-30T15:48:53.667Z,18.45
2023-03-30T15:51:29.362Z,18.54
2023-03-30T15:54:13.659Z,18.59
2023-03-30T15:56:47.544Z,18.54
2023-03-30T15:59:22.171Z,18.85
2023-03-30T16:01:53.671Z,18.97
2023-03-30T16:04:22.914Z,18.92
2023-03-30T16:06:50.489Z,18.88
2023-03-30T16:09:17.674Z,19.02
2023-03-30T16:11:46.926Z,18.98
2023-03-30T16:14:17.968Z,18.91
2023-03-30T16:16:44.942Z,18.75
2023-03-30T16:19:13.931Z,18.63
2023-03-30T16:21:42.518Z,18.69
2023-03-30T16:24:10.939Z,18.54
2023-03-30T16:26:37.660Z,18.33
2023-03-30T16:29:04.498Z,18.34
2023-03-30T16:31:33.812Z,18.34
2023-03-30T16:34:00.889Z,18.49
2023-03-30T16:36:29.411Z,18.71
2023-03-30T16:38:56.431Z,18.71
2023-03-30T16:41:23.422Z,18.69
2023-03-30T16:43:50.304Z,18.78
2023-03-30T16:46:22.196Z,18.80
2023-03-30T16:48:49.182Z,18.68
2023-03-30T16:51:16.279Z,18.60
2023-03-30T16:53:43.122Z,18.43
2023-03-30T16:56:16.846Z,18.53
2023-03-30T16:58:44.098Z,18.57
2023-03-30T17:01:13.446Z,18.38
2023-03-30T17:03:40.568Z,18.21
2023-03-30T17:06:08.325Z,18.01
2023-03-30T17:08:35.598Z,18.08
2023-03-30T17:11:07.738Z,18.00
2023-03-30T17:13:35.004Z,18.17
2023-03-30T17:16:02.987Z,18.14
2023-03-30T17:18:30.307Z,18.18
2023-03-30T17:20:59.068Z,18.07
2023-03-30T17:23:30.414Z,17.94
2023-03-30T17:25:58.626Z,17.85
2023-03-30T17:28:27.067Z,17.91
2023-03-30T17:31:09.928Z,17.92
2023-03-30T17:33:38.095Z,17.93
2023-03-30T17:36:11.883Z,17.77
2023-03-30T17:38:39.447Z,17.82
2023-03-30T17:41:08.977Z,17.82
2023-03-30T17:43:35.702Z,17.86
2023-03-30T17:46:02.549Z,17.90
2023-03-30T17:48:29.243Z,17.82
2023-03-30T17:50:56.135Z,17.83
2023-03-30T17:53:23.393Z,17.72
2023-03-30T17:55:52.471Z,17.76
2023-03-30T17:58:26.680Z,17.77
2023-03-30T18:00:53.873Z,17.65
2023-03-30T18:03:22.722Z,17.64
2023-03-30T18:05:50.754Z,17.61
2023-03-30T18:08:21.392Z,17.60
2023-03-30T18:10:53.873Z,17.50
2023-03-30T18:13:22.430Z,17.38
2023-03-30T18:15:51.783Z,17.39
2023-03-30T18:18:22.865Z,17.41
2023-03-30T18:20:52.328Z,17.25
2023-03-30T18:23:19.980Z,17.15
2023-03-30T18:25:47.252Z,17.22
2023-03-30T18:28:18.374Z,17.24
2023-03-30T18:30:45.815Z,17.26
2023-03-30T18:33:12.673Z,17.27
2023-03-30T18:35:39.608Z,17.32
2023-03-30T18:38:06.768Z,17.32
2023-03-30T18:40:35.123Z,17.28
2023-03-30T18:43:02.050Z,17.26
2023-03-30T18:45:33.836Z,17.31
2023-03-30T18:48:02.348Z,17.30
2023-03-30T18:50:36.194Z,17.26
2023-03-30T18:53:05.322Z,17.30
2023-03-30T18:55:35.324Z,17.24
2023-03-30T18:58:03.502Z,17.23
2023-03-30T19:00:32.146Z,17.23
2023-03-30T19:02:59.349Z,17.25
2023-03-30T19:05:28.715Z,17.24
2023-03-30T19:07:56.456Z,17.27
2023-03-30T19:10:32.309Z,17.26
2023-03-30T19:12:59.085Z,17.24
2023-03-30T19:15:31.435Z,17.23
2023-03-30T19:18:04.345Z,17.23
2023-03-30T19:20:34.091Z,17.20
2023-03-30T19:23:01.204Z,17.19
2023-03-30T19:25:28.218Z,17.20
2023-03-30T19:28:03.274Z,17.19
2023-03-30T19:30:33.733Z,17.17
2023-03-30T19:33:08.135Z,17.19
2023-03-30T19:35:35.073Z,17.17
2023-03-30T19:38:02.153Z,17.17
2023-03-30T19:40:29.085Z,17.19
2023-03-30T19:42:56.127Z,17.18
2023-03-30T19:45:23.960Z,17.21
2023-03-30T19:47:53.161Z,17.19
2023-03-30T19:50:23.253Z,17.16
2023-03-30T19:52:50.993Z,17.11
2023-03-30T19:55:19.438Z,17.09
2023-03-30T19:57:46.977Z,17.07
2023-03-30T20:00:16.157Z,17.07
2023-03-30T20:02:48.450Z,17.08
2023-03-30T20:05:16.660Z,17.08
2023-03-30T20:07:45.441Z,17.06
2023-03-30T20:10:15.769Z,17.04
2023-03-30T20:12:42.584Z,17.07
2023-03-30T20:15:09.962Z,17.06
2023-03-30T20:17:38.398Z,17.06
2023-03-30T20:20:08.836Z,17.01
2023-03-30T20:22:37.262Z,17.01
2023-03-30T20:25:07.626Z,16.98
2023-03-30T20:27:35.564Z,17.00
2023-03-30T20:30:03.600Z,16.98
2023-03-30T20:32:30.470Z,16.99
2023-03-30T20:34:57.270Z,16.98
2023-03-30T20:37:24.045Z,16.98
2023-03-30T20:39:50.878Z,17.00
2023-03-30T20:42:18.366Z,17.00
2023-03-30T20:44:50.472Z,16.98
2023-03-30T20:47:17.791Z,16.95
2023-03-30T20:49:46.345Z,16.95
2023-03-30T20:52:13.459Z,16.96
2023-03-30T20:54:41.632Z,16.95
2023-03-30T20:57:08.452Z,16.98
2023-03-30T20:59:37.537Z,16.91
2023-03-30T21:02:05.013Z,16.93
2023-03-30T21:04:36.521Z,16.96
2023-03-30T21:07:03.810Z,16.86
2023-03-30T21:09:30.947Z,16.90
2023-03-30T21:11:57.775Z,16.90
2023-03-30T21:14:24.666Z,16.84
2023-03-30T21:16:51.508Z,16.84
2023-03-30T21:19:18.371Z,16.80
2023-03-30T21:21:45.463Z,16.77
2023-03-30T21:24:13.237Z,16.78
2023-03-30T21:26:40.919Z,16.75
2023-03-30T21:29:07.853Z,16.64
2023-03-30T21:31:34.792Z,16.57
2023-03-30T21:34:01.642Z,16.55
2023-03-30T21:36:28.453Z,16.57
2023-03-30T21:38:57.630Z,16.58
2023-03-30T21:41:26.234Z,16.59
2023-03-30T21:43:53.229Z,16.59
2023-03-30T21:46:22.116Z,16.59
2023-03-30T21:48:53.164Z,16.54
2023-03-30T21:51:27.287Z,16.38
2023-03-30T21:53:56.182Z,16.28
2023-03-30T21:56:25.978Z,16.22
2023-03-30T21:58:53.641Z,16.22
2023-03-30T22:01:24.141Z,16.23
2023-03-30T22:03:52.669Z,16.20
2023-03-30T22:06:20.921Z,16.23
2023-03-30T22:08:49.228Z,16.24
2023-03-30T22:11:21.343Z,16.24
2023-03-30T22:13:49.051Z,16.28
2023-03-30T22:16:24.183Z,16.23
2023-03-30T22:18:52.042Z,16.29
2023-03-30T22:21:34.125Z,16.29
2023-03-30T22:24:06.313Z,16.26
2023-03-30T22:26:34.360Z,16.13
2023-03-30T22:29:01.266Z,16.07
2023-03-30T22:31:28.441Z,16.06
2023-03-30T22:33:56.473Z,16.07
2023-03-30T22:36:26.351Z,16.04
2023-03-30T22:38:53.222Z,16.12
2023-03-30T22:41:23.888Z,16.12
2023-03-30T22:43:52.312Z,16.16
2023-03-30T22:46:19.148Z,16.15
2023-03-30T22:48:46.048Z,16.18
2023-03-30T22:51:23.341Z,16.21
2023-03-30T22:53:50.347Z,16.22
2023-03-30T22:56:17.147Z,16.12
2023-03-30T22:58:46.326Z,16.15
2023-03-30T23:01:14.318Z,16.16
2023-03-30T23:03:41.476Z,16.15
2023-03-30T23:06:09.386Z,16.17
2023-03-30T23:08:36.882Z,16.19
2023-03-30T23:11:06.787Z,16.13
2023-03-30T23:13:37.817Z,16.13
2023-03-30T23:16:06.611Z,16.15
2023-03-30T23:18:34.098Z,16.17
2023-03-30T23:21:06.244Z,16.17
2023-03-30T23:23:35.373Z,16.21
2023-03-30T23:26:09.206Z,16.20
2023-03-30T23:28:41.864Z,16.22
2023-03-30T23:31:15.016Z,16.21
2023-03-30T23:33:42.637Z,16.22
2023-03-30T23:36:13.633Z,16.22
2023-03-30T23:38:41.043Z,16.21
2023-03-30T23:41:07.820Z,16.21
2023-03-30T23:43:34.748Z,16.23
2023-03-30T23:46:01.737Z,16.26
2023-03-30T23:48:28.764Z,16.28
2023-03-30T23:50:57.282Z,16.27
2023-03-30T23:53:26.508Z,16.21
2023-03-30T23:55:54.131Z,16.21
2023-03-30T23:58:21.034Z,16.24
